LTU120 EDDC-EDDN
Flight info
| Callsign | LTU120 |
|---|---|
| Flight time | 0h 38m |
| Altitude | 30000 |
| Route | ABKIS4E ABKIS Z715 KULOK/N0498F290 Q244 NIBIL/N0408F230 Q244 PIVIR PIVIR1T |
| Aircraft | L101/H-SDFGHIRWXY/S |
Departure
| Time | 2026-05-08 17:44 |
|---|---|
| Airport | Dresden Airport (EDDC) |
Arrival
| Time | 2026-05-08 18:22 |
|---|---|
| Airport | Nuremberg Airport (EDDN) |
| Time | Latitude | Longitude | Altitude | Speed | Heading |
|---|---|---|---|---|---|
| 2026-05-08 17:23 | 51.12662 | 13.76486 | 758 ft | 0 kts | 220° |
| 2026-05-08 17:36 | 51.12665 | 13.76490 | 753 ft | 1 kts | 220° |
| 2026-05-08 17:36 | 51.12679 | 13.76509 | 755 ft | 3 kts | 220° |
| 2026-05-08 17:37 | 51.12694 | 13.76530 | 753 ft | 3 kts | 220° |
| 2026-05-08 17:37 | 51.12707 | 13.76548 | 754 ft | 3 kts | 226° |
| 2026-05-08 17:37 | 51.12718 | 13.76571 | 752 ft | 3 kts | 264° |
| 2026-05-08 17:37 | 51.12715 | 13.76598 | 752 ft | 3 kts | 306° |
| 2026-05-08 17:38 | 51.12702 | 13.76621 | 754 ft | 3 kts | 317° |
| 2026-05-08 17:38 | 51.12691 | 13.76639 | 755 ft | 1 kts | 311° |
| 2026-05-08 17:38 | 51.12690 | 13.76640 | 755 ft | 0 kts | 311° |
| 2026-05-08 17:40 | 51.12705 | 13.76612 | 753 ft | 7 kts | 312° |
| 2026-05-08 17:41 | 51.12753 | 13.76527 | 752 ft | 14 kts | 312° |
| 2026-05-08 17:41 | 51.12777 | 13.76379 | 751 ft | 16 kts | 235° |
| 2026-05-08 17:41 | 51.12686 | 13.76245 | 753 ft | 19 kts | 221° |
| 2026-05-08 17:41 | 51.12583 | 13.76104 | 757 ft | 20 kts | 220° |
| 2026-05-08 17:42 | 51.12476 | 13.75957 | 767 ft | 20 kts | 220° |
| 2026-05-08 17:42 | 51.12380 | 13.75812 | 769 ft | 16 kts | 250° |
| 2026-05-08 17:42 | 51.12403 | 13.75641 | 770 ft | 17 kts | 296° |
| 2026-05-08 17:42 | 51.12480 | 13.75521 | 774 ft | 15 kts | 1° |
| 2026-05-08 17:43 | 51.12556 | 13.75594 | 771 ft | 0 kts | 42° |
| 2026-05-08 17:44 | 51.12579 | 13.75626 | 771 ft | 29 kts | 40° |
| 2026-05-08 17:44 | 51.13019 | 13.76231 | 751 ft | 133 kts | 40° |
| 2026-05-08 17:44 | 51.13818 | 13.77350 | 1477 ft | 158 kts | 43° |
| 2026-05-08 17:44 | 51.14679 | 13.78652 | 2396 ft | 189 kts | 44° |
| 2026-05-08 17:45 | 51.15775 | 13.80205 | 2977 ft | 232 kts | 41° |
| 2026-05-08 17:45 | 51.17090 | 13.81953 | 3835 ft | 256 kts | 40° |
| 2026-05-08 17:45 | 51.18544 | 13.83902 | 4695 ft | 288 kts | 41° |
| 2026-05-08 17:45 | 51.20083 | 13.86112 | 5773 ft | 303 kts | 46° |
| 2026-05-08 17:46 | 51.21260 | 13.88897 | 7145 ft | 301 kts | 66° |
| 2026-05-08 17:46 | 51.21799 | 13.92047 | 7784 ft | 293 kts | 84° |
| 2026-05-08 17:46 | 51.21633 | 13.95213 | 7882 ft | 284 kts | 106° |
| 2026-05-08 17:46 | 51.20755 | 13.98008 | 7820 ft | 283 kts | 129° |
| 2026-05-08 17:47 | 51.19280 | 13.99988 | 8152 ft | 276 kts | 151° |
| 2026-05-08 17:47 | 51.17435 | 14.01340 | 8609 ft | 309 kts | 160° |
| 2026-05-08 17:47 | 51.15340 | 14.02507 | 9450 ft | 326 kts | 161° |
| 2026-05-08 17:47 | 51.13926 | 14.03361 | 10124 ft | 330 kts | 157° |
| 2026-05-08 17:48 | 51.11459 | 14.05770 | 11434 ft | 300 kts | 141° |
| 2026-05-08 17:48 | 51.09954 | 14.08081 | 12522 ft | 302 kts | 134° |
| 2026-05-08 17:48 | 51.08384 | 14.10310 | 13612 ft | 306 kts | 151° |
| 2026-05-08 17:48 | 51.06427 | 14.11560 | 14608 ft | 305 kts | 172° |
| 2026-05-08 17:49 | 51.04269 | 14.11640 | 15597 ft | 319 kts | 192° |
| 2026-05-08 17:49 | 51.02128 | 14.10498 | 16617 ft | 334 kts | 211° |
| 2026-05-08 17:49 | 51.00243 | 14.08232 | 17675 ft | 348 kts | 227° |
| 2026-05-08 17:49 | 50.98628 | 14.05270 | 18740 ft | 363 kts | 234° |
| 2026-05-08 17:50 | 50.97071 | 14.02011 | 19703 ft | 378 kts | 234° |
| 2026-05-08 17:50 | 50.95392 | 13.98708 | 20682 ft | 392 kts | 231° |
| 2026-05-08 17:50 | 50.93499 | 13.95490 | 21726 ft | 405 kts | 226° |
| 2026-05-08 17:50 | 50.91420 | 13.92376 | 22790 ft | 416 kts | 224° |
| 2026-05-08 17:51 | 50.89233 | 13.89308 | 23869 ft | 424 kts | 223° |
| 2026-05-08 17:51 | 50.87001 | 13.86192 | 24816 ft | 431 kts | 224° |
| 2026-05-08 17:51 | 50.84776 | 13.82974 | 25777 ft | 435 kts | 225° |
| 2026-05-08 17:51 | 50.82587 | 13.79673 | 26804 ft | 434 kts | 226° |
| 2026-05-08 17:52 | 50.80427 | 13.76318 | 27803 ft | 438 kts | 227° |
| 2026-05-08 17:52 | 50.78418 | 13.72621 | 28025 ft | 452 kts | 237° |
| 2026-05-08 17:52 | 50.75919 | 13.63336 | 29052 ft | 464 kts | 256° |
| 2026-05-08 17:53 | 50.75229 | 13.58376 | 29992 ft | 465 kts | 258° |
| 2026-05-08 17:53 | 50.73572 | 13.48506 | 30032 ft | 463 kts | 251° |
| 2026-05-08 17:54 | 50.71148 | 13.39117 | 29992 ft | 462 kts | 246° |
| 2026-05-08 17:54 | 50.68634 | 13.29794 | 29992 ft | 464 kts | 249° |
| 2026-05-08 17:55 | 50.66391 | 13.20226 | 29983 ft | 466 kts | 251° |
| 2026-05-08 17:55 | 50.64224 | 13.10683 | 29992 ft | 466 kts | 250° |
| 2026-05-08 17:56 | 50.61841 | 13.01188 | 29983 ft | 467 kts | 246° |
| 2026-05-08 17:56 | 50.58915 | 12.92066 | 29980 ft | 467 kts | 242° |
| 2026-05-08 17:57 | 50.55742 | 12.83158 | 29982 ft | 467 kts | 241° |
| 2026-05-08 17:57 | 50.52605 | 12.74224 | 29982 ft | 467 kts | 242° |
| 2026-05-08 17:58 | 50.49576 | 12.65201 | 29985 ft | 467 kts | 243° |
| 2026-05-08 17:58 | 50.46604 | 12.56140 | 29985 ft | 467 kts | 243° |
| 2026-05-08 17:59 | 50.43620 | 12.47076 | 29987 ft | 468 kts | 243° |
| 2026-05-08 17:59 | 50.40603 | 12.38027 | 29986 ft | 468 kts | 243° |
| 2026-05-08 18:00 | 50.37566 | 12.29007 | 29982 ft | 468 kts | 242° |
| 2026-05-08 18:00 | 50.32906 | 12.15576 | 29973 ft | 468 kts | 239° |
| 2026-05-08 18:01 | 50.29285 | 12.07112 | 29970 ft | 469 kts | 235° |
| 2026-05-08 18:01 | 50.25434 | 11.98879 | 29961 ft | 469 kts | 235° |
| 2026-05-08 18:02 | 50.22401 | 11.91862 | 29966 ft | 469 kts | 238° |
| 2026-05-08 18:02 | 50.18421 | 11.81705 | 29967 ft | 469 kts | 238° |
| 2026-05-08 18:03 | 50.14453 | 11.73639 | 29969 ft | 469 kts | 229° |
| 2026-05-08 18:03 | 50.09841 | 11.66435 | 29957 ft | 470 kts | 221° |
| 2026-05-08 18:04 | 50.07209 | 11.63521 | 29939 ft | 472 kts | 210° |
| 2026-05-08 18:04 | 50.04197 | 11.61501 | 29949 ft | 473 kts | 198° |
| 2026-05-08 18:04 | 49.97606 | 11.60041 | 29494 ft | 482 kts | 184° |
| 2026-05-08 18:05 | 49.94314 | 11.59785 | 28706 ft | 476 kts | 187° |
| 2026-05-08 18:05 | 49.91072 | 11.58973 | 27862 ft | 468 kts | 195° |
| 2026-05-08 18:05 | 49.87940 | 11.57516 | 27051 ft | 461 kts | 202° |
| 2026-05-08 18:05 | 49.85049 | 11.55483 | 26285 ft | 454 kts | 210° |
| 2026-05-08 18:06 | 49.82325 | 11.53062 | 25525 ft | 448 kts | 213° |
| 2026-05-08 18:06 | 49.79660 | 11.50595 | 24793 ft | 444 kts | 212° |
| 2026-05-08 18:06 | 49.76959 | 11.48334 | 24073 ft | 440 kts | 208° |
| 2026-05-08 18:06 | 49.74187 | 11.46349 | 23310 ft | 437 kts | 205° |
| 2026-05-08 18:07 | 49.71426 | 11.44592 | 22490 ft | 434 kts | 204° |
| 2026-05-08 18:07 | 49.68633 | 11.42883 | 21683 ft | 429 kts | 204° |
| 2026-05-08 18:07 | 49.65849 | 11.41121 | 20903 ft | 425 kts | 205° |
| 2026-05-08 18:07 | 49.63244 | 11.39183 | 20117 ft | 419 kts | 214° |
| 2026-05-08 18:08 | 49.61009 | 11.36389 | 19351 ft | 411 kts | 229° |
| 2026-05-08 18:08 | 49.59308 | 11.32907 | 18637 ft | 405 kts | 239° |
| 2026-05-08 18:08 | 49.57996 | 11.29025 | 17852 ft | 402 kts | 250° |
| 2026-05-08 18:08 | 49.57348 | 11.24932 | 17052 ft | 397 kts | 264° |
| 2026-05-08 18:09 | 49.57450 | 11.20715 | 16292 ft | 394 kts | 280° |
| 2026-05-08 18:09 | 49.58201 | 11.16690 | 15551 ft | 390 kts | 289° |
| 2026-05-08 18:09 | 49.59186 | 11.12808 | 14846 ft | 387 kts | 290° |
| 2026-05-08 18:09 | 49.60053 | 11.08908 | 14127 ft | 383 kts | 285° |
| 2026-05-08 18:10 | 49.60636 | 11.04885 | 13342 ft | 378 kts | 279° |
| 2026-05-08 18:10 | 49.60966 | 11.00887 | 12558 ft | 374 kts | 275° |
| 2026-05-08 18:10 | 49.61183 | 10.96906 | 11788 ft | 371 kts | 274° |
| 2026-05-08 18:10 | 49.61404 | 10.92964 | 11037 ft | 367 kts | 275° |
| 2026-05-08 18:11 | 49.61700 | 10.89070 | 10319 ft | 362 kts | 277° |
| 2026-05-08 18:11 | 49.62061 | 10.85371 | 10009 ft | 334 kts | 279° |
| 2026-05-08 18:11 | 49.62427 | 10.82007 | 9976 ft | 303 kts | 279° |
| 2026-05-08 18:11 | 49.62759 | 10.78947 | 9937 ft | 280 kts | 279° |
| 2026-05-08 18:12 | 49.63057 | 10.76042 | 9964 ft | 278 kts | 278° |
| 2026-05-08 18:12 | 49.63349 | 10.73034 | 9971 ft | 281 kts | 278° |
| 2026-05-08 18:12 | 49.63627 | 10.70078 | 9955 ft | 282 kts | 278° |
| 2026-05-08 18:12 | 49.63904 | 10.67080 | 9937 ft | 282 kts | 278° |
| 2026-05-08 18:13 | 49.64182 | 10.64083 | 9933 ft | 282 kts | 278° |
| 2026-05-08 18:13 | 49.64462 | 10.61089 | 9931 ft | 282 kts | 278° |
| 2026-05-08 18:13 | 49.64588 | 10.58083 | 9900 ft | 280 kts | 263° |
| 2026-05-08 18:13 | 49.64045 | 10.55314 | 9645 ft | 266 kts | 242° |
| 2026-05-08 18:14 | 49.62871 | 10.53149 | 9142 ft | 265 kts | 218° |
| 2026-05-08 18:14 | 49.61252 | 10.51839 | 8651 ft | 263 kts | 200° |
| 2026-05-08 18:14 | 49.59479 | 10.51235 | 8209 ft | 260 kts | 188° |
| 2026-05-08 18:14 | 49.57688 | 10.51443 | 7714 ft | 261 kts | 164° |
| 2026-05-08 18:15 | 49.56099 | 10.52771 | 7228 ft | 262 kts | 140° |
| 2026-05-08 18:15 | 49.55008 | 10.54962 | 6911 ft | 252 kts | 118° |
| 2026-05-08 18:15 | 49.54467 | 10.57477 | 6653 ft | 248 kts | 103° |
| 2026-05-08 18:15 | 49.54205 | 10.60130 | 6190 ft | 252 kts | 97° |
| 2026-05-08 18:16 | 49.54044 | 10.62803 | 5646 ft | 248 kts | 95° |
| 2026-05-08 18:16 | 49.53887 | 10.65426 | 5093 ft | 243 kts | 96° |
| 2026-05-08 18:16 | 49.53700 | 10.67965 | 4541 ft | 234 kts | 97° |
| 2026-05-08 18:16 | 49.53492 | 10.70362 | 4185 ft | 217 kts | 97° |
| 2026-05-08 18:17 | 49.53296 | 10.72550 | 4038 ft | 196 kts | 96° |
| 2026-05-08 18:17 | 49.53113 | 10.74593 | 4147 ft | 191 kts | 97° |
| 2026-05-08 18:17 | 49.52914 | 10.76636 | 4216 ft | 194 kts | 97° |
| 2026-05-08 18:17 | 49.52709 | 10.78713 | 4270 ft | 198 kts | 98° |
| 2026-05-08 18:18 | 49.52502 | 10.80818 | 4149 ft | 199 kts | 98° |
| 2026-05-08 18:18 | 49.52295 | 10.82925 | 3958 ft | 198 kts | 98° |
| 2026-05-08 18:18 | 49.52101 | 10.84896 | 3732 ft | 173 kts | 97° |
| 2026-05-08 18:18 | 49.51935 | 10.86577 | 3481 ft | 150 kts | 96° |
| 2026-05-08 18:19 | 49.51782 | 10.88154 | 3245 ft | 148 kts | 96° |
| 2026-05-08 18:19 | 49.51630 | 10.89725 | 3254 ft | 151 kts | 96° |
| 2026-05-08 18:19 | 49.51472 | 10.91355 | 3105 ft | 156 kts | 96° |
| 2026-05-08 18:19 | 49.51312 | 10.92991 | 2868 ft | 154 kts | 96° |
| 2026-05-08 18:20 | 49.51152 | 10.94593 | 2554 ft | 145 kts | 96° |
| 2026-05-08 18:20 | 49.51000 | 10.96054 | 2277 ft | 133 kts | 96° |
| 2026-05-08 18:20 | 49.50838 | 10.97492 | 2020 ft | 147 kts | 96° |
| 2026-05-08 18:20 | 49.50680 | 10.99023 | 1949 ft | 142 kts | 95° |
| 2026-05-08 18:21 | 49.50547 | 11.00532 | 1796 ft | 144 kts | 95° |
| 2026-05-08 18:21 | 49.50424 | 11.02079 | 1563 ft | 147 kts | 94° |
| 2026-05-08 18:21 | 49.50277 | 11.03624 | 1365 ft | 147 kts | 96° |
| 2026-05-08 18:21 | 49.50123 | 11.05198 | 1182 ft | 150 kts | 95° |
| 2026-05-08 18:22 | 49.49972 | 11.06735 | 1021 ft | 135 kts | 98° |
| 2026-05-08 18:22 | 49.49857 | 11.07903 | 1039 ft | 92 kts | 98° |
| 2026-05-08 18:22 | 49.49779 | 11.08737 | 1036 ft | 54 kts | 97° |
| 2026-05-08 18:22 | 49.49730 | 11.09240 | 1048 ft | 44 kts | 98° |
| 2026-05-08 18:23 | 49.49666 | 11.09558 | 1050 ft | 20 kts | 175° |
| 2026-05-08 18:23 | 49.49570 | 11.09436 | 1047 ft | 4 kts | 234° |
| 2026-05-08 18:23 | 49.49569 | 11.09435 | 1047 ft | 0 kts | 234° |
| 2026-05-08 18:25 | 49.49557 | 11.09409 | 1049 ft | 6 kts | 234° |
| 2026-05-08 18:26 | 49.49533 | 11.09321 | 1046 ft | 12 kts | 263° |
| 2026-05-08 18:26 | 49.49545 | 11.09151 | 1044 ft | 20 kts | 278° |
| 2026-05-08 18:26 | 49.49568 | 11.08922 | 1042 ft | 23 kts | 279° |
| 2026-05-08 18:26 | 49.49594 | 11.08667 | 1039 ft | 26 kts | 278° |
| 2026-05-08 18:27 | 49.49611 | 11.08405 | 1036 ft | 20 kts | 246° |
| 2026-05-08 18:27 | 49.49551 | 11.08357 | 1038 ft | 15 kts | 181° |
| 2026-05-08 18:27 | 49.49527 | 11.08469 | 1039 ft | 7 kts | 85° |
| 2026-05-08 18:27 | 49.49533 | 11.08497 | 1039 ft | 4 kts | 55° |
| 2026-05-08 18:28 | 49.49550 | 11.08529 | 1038 ft | 0 kts | 51° |